Time;durP1;ratioP1;P1;durP2;ratioP2;P2;SDS_P1;SDS_P2;PMS_P1;PMS_P2;Temp;Humidity;BMP_temperature;BMP_pressure;BME280_temperature;BME280_humidity;BME280_pressure;Samples;Min_cycle;Max_cycle;Signal;HPM_P1;HPM_P2
2023/12/04 00:10:34;;;;;;;6.50;4.07;;;;;;;1.96;100.00;99139.88;4812620;29;20492;-91
2023/12/04 00:13:18;;;;;;;3.33;2.65;;;;;;;1.90;100.00;99137.75;4860887;29;20483;-92
2023/12/04 00:20:29;;;;;;;2.22;1.65;;;;;;;1.85;100.00;99120.72;4877474;29;20045;-92
2023/12/04 00:23:51;;;;;;;5.88;3.80;;;;;;;1.89;100.00;99142.16;4864855;29;20511;-91
2023/12/04 00:26:42;;;;;;;3.15;2.75;;;;;;;1.83;100.00;99138.22;4862942;29;20037;-92
2023/12/04 00:29:30;;;;;;;4.38;2.47;;;;;;;1.88;100.00;99118.81;4864778;29;20048;-91
2023/12/04 00:32:05;;;;;;;7.32;3.42;;;;;;;1.86;100.00;99143.19;4848512;29;20025;-91
2023/12/04 00:34:36;;;;;;;3.38;2.50;;;;;;;1.80;100.00;99137.66;4859315;29;20048;-91
2023/12/04 00:37:14;;;;;;;4.78;3.85;;;;;;;1.98;100.00;99151.84;4845699;29;20036;-91
2023/12/04 00:39:45;;;;;;;5.10;3.97;;;;;;;1.95;100.00;99130.41;4845994;29;20081;-91
2023/12/04 00:42:59;;;;;;;8.20;3.78;;;;;;;2.01;100.00;99134.31;4874034;29;20037;-91
2023/12/04 00:45:46;;;;;;;4.88;3.17;;;;;;;1.99;100.00;99137.03;4870630;29;20089;-90
2023/12/04 00:48:34;;;;;;;4.47;3.03;;;;;;;1.90;100.00;99116.91;4875081;29;20180;-91
2023/12/04 00:51:09;;;;;;;3.22;2.63;;;;;;;1.97;100.00;99131.13;4848243;29;20504;-91
2023/12/04 00:54:16;;;;;;;;;;;;;;;;;;;;;
2023/12/04 00:57:08;;;;;;;5.63;2.95;;;;;;;2.00;100.00;99122.22;4878403;29;20045;-91
2023/12/04 01:04:19;;;;;;;5.53;2.80;;;;;;;2.12;100.00;99121.22;4838123;29;20451;-91
2023/12/04 01:06:55;;;;;;;4.95;3.63;;;;;;;2.08;100.00;99125.03;4792137;29;20037;-91
2023/12/04 01:30:44;;;;;;;2.70;2.05;;;;;;;1.95;100.00;99097.34;4837543;29;20537;-90
2023/12/04 01:37:36;;;;;;;2.60;1.52;;;;;;;1.96;100.00;99096.41;4845323;29;20125;-90
2023/12/04 01:40:05;;;;;;;3.83;2.20;;;;;;;2.02;100.00;99102.91;4830914;29;20049;-90
2023/12/04 01:42:32;;;;;;;2.70;2.47;;;;;;;1.97;100.00;99103.28;4842036;29;20041;-90
2023/12/04 01:45:09;;;;;;;3.35;1.73;;;;;;;2.01;100.00;99100.44;4863343;29;20092;-90
2023/12/04 01:47:43;;;;;;;4.18;1.65;;;;;;;1.97;100.00;99089.41;4842084;29;20492;-88
2023/12/04 01:50:27;;;;;;;1.75;1.42;;;;;;;1.95;100.00;99088.69;4854088;29;20044;-91
2023/12/04 01:54:06;;;;;;;2.03;1.70;;;;;;;1.88;100.00;99093.56;4875573;29;20048;-92
2023/12/04 02:04:34;;;;;;;;;;;;;;;1.69;100.00;99102.84;4872278;29;20397;-90
2023/12/04 02:10:50;;;;;;;;;;;;;;;1.62;100.00;99096.47;4849929;29;19915;-90
2023/12/04 02:13:16;;;;;;;;;;;;;;;1.57;100.00;99096.81;4857465;29;19915;-90
2023/12/04 02:16:15;;;;;;;;;;;;;;;1.53;100.00;99113.63;4851282;29;19922;-90
2023/12/04 02:18:41;;;;;;;;;;;;;;;1.50;100.00;99106.03;4851905;29;19923;-90
2023/12/04 02:21:18;;;;;;;;;;;;;;;1.43;100.00;99105.72;4836911;29;19915;-90
2023/12/04 02:27:37;;;;;;;;;;;;;;;1.34;100.00;99109.84;4867238;29;19959;-90
2023/12/04 02:30:34;;;;;;;;;;;;;;;1.28;100.00;99105.09;4865539;29;19916;-91
2023/12/04 02:36:56;;;;;;;;;;;;;;;1.15;100.00;99101.78;4883438;29;19968;-91
2023/12/04 02:50:53;;;;;;;;;;;;;;;1.03;100.00;99113.94;4878720;29;19922;-90
2023/12/04 02:56:58;;;;;;;;;;;;;;;1.02;100.00;99113.09;4864839;29;19916;-90
2023/12/04 02:59:34;;;;;;;;;;;;;;;1.01;100.00;99115.81;4863529;29;19919;-89
2023/12/04 03:02:08;;;;;;;;;;;;;;;1.00;100.00;99107.22;4834315;29;20393;-90
2023/12/04 03:04:40;;;;;;;;;;;;;;;1.06;100.00;99117.16;4840795;29;19919;-90
2023/12/04 03:07:19;;;;;;;;;;;;;;;1.05;100.00;99097.25;4847599;29;20014;-90
2023/12/04 03:09:48;;;;;;;;;;;;;;;1.04;100.00;99105.19;4842391;29;20032;-89
2023/12/04 03:12:22;;;;;;;;;;;;;;;1.04;100.00;99113.00;4865849;29;19916;-90
2023/12/04 03:14:57;;;;;;;;;;;;;;;1.01;100.00;99101.06;4877571;29;19923;-89
2023/12/04 03:17:32;;;;;;;;;;;;;;;1.01;100.00;99103.66;4849023;29;19967;-89
2023/12/04 03:20:00;;;;;;;;;;;;;;;1.01;100.00;99108.88;4848169;29;19920;-91
2023/12/04 03:22:51;;;;;;;;;;;;;;;1.01;100.00;99106.25;4864831;29;19920;-91
2023/12/04 03:25:21;;;;;;;;;;;;;;;1.01;100.00;99103.66;4838830;29;19980;-90
2023/12/04 03:27:49;;;;;;;;;;;;;;;0.98;100.00;99101.28;4847764;29;19923;-90
2023/12/04 03:30:23;;;;;;;;;;;;;;;0.98;100.00;99101.28;4864624;29;19923;-90
2023/12/04 03:33:04;;;;;;;;;;;;;;;0.97;100.00;99115.25;4867974;29;19947;-90
2023/12/04 03:35:30;;;;;;;;;;;;;;;0.95;100.00;99111.94;4881232;29;19919;-91
2023/12/04 03:38:03;;;;;;;;;;;;;;;0.96;100.00;99110.97;4853861;29;19915;-91
2023/12/04 03:40:31;;;;;;;;;;;;;;;0.98;100.00;99106.50;4879908;29;19927;-89
2023/12/04 03:43:00;;;;;;;;;;;;;;;0.95;100.00;99098.91;4883010;29;20006;-90
2023/12/04 03:45:27;;;;;;;;;;;;;;;0.96;100.00;99106.59;4881507;29;20071;-92
2023/12/04 03:47:52;;;;;;;;;;;;;;;0.89;100.00;99102.81;4877559;29;19965;-91
2023/12/04 03:50:21;;;;;;;;;;;;;;;0.86;100.00;99111.66;4855222;29;20327;-90
2023/12/04 03:52:49;;;;;;;;;;;;;;;0.83;100.00;99103.25;4850642;29;19939;-90
2023/12/04 03:55:23;;;;;;;;;;;;;;;0.88;100.00;99111.56;4861193;29;19919;-90
2023/12/04 03:57:52;;;;;;;;;;;;;;;0.87;100.00;99109.91;4864652;29;20064;-91
2023/12/04 04:00:26;;;;;;;;;;;;;;;0.86;100.00;99103.06;4857770;29;19915;-90
2023/12/04 04:03:04;;;;;;;;;;;;;;;0.84;100.00;99097.97;4867467;29;19971;-89
2023/12/04 04:05:38;;;;;;;;;;;;;;;0.89;100.00;99100.22;4867136;29;19939;-90
2023/12/04 04:08:12;;;;;;;;;;;;;;;0.86;100.00;99111.66;4862480;29;19919;-90
2023/12/04 04:10:51;;;;;;;;;;;;;;;0.91;100.00;99115.72;4856148;29;19915;-90
2023/12/04 04:13:43;;;;;;;;;;;;;;;0.89;100.00;99110.63;4867959;29;20017;-90
2023/12/04 04:16:18;;;;;;;;;;;;;;;0.91;100.00;99095.72;4847290;29;19923;-91
2023/12/04 04:19:05;;;;;;;;;;;;;;;0.92;100.00;99096.56;4871591;29;20367;-91
2023/12/04 04:21:39;;;;;;;;;;;;;;;0.96;100.00;99104.00;4852982;29;19966;-92
2023/12/04 04:24:16;;;;;;;;;;;;;;;1.02;100.00;99100.09;4879157;29;19923;-93
2023/12/04 04:26:48;;;;;;;;;;;;;;;1.04;100.00;99098.22;4848663;29;19916;-93
2023/12/04 04:29:14;;;;;;;;;;;;;;;1.01;100.00;99103.66;4882707;29;19919;-92
2023/12/04 04:31:43;;;;;;;;;;;;;;;1.01;100.00;99089.81;4855887;29;19915;-89
2023/12/04 04:34:28;;;;;;;;;;;;;;;1.02;100.00;99100.09;4847943;29;19920;-90
2023/12/04 04:36:59;;;;;;;;;;;;;;;1.01;100.00;99108.88;4823315;29;19922;-90
2023/12/04 04:39:38;;;;;;;;;;;;;;;1.00;100.00;99112.41;4850329;29;19963;-90
2023/12/04 04:42:05;;;;;;;;;;;;;;;1.02;100.00;99120.91;4861957;29;19922;-90
2023/12/04 04:44:33;;;;;;;;;;;;;;;1.03;100.00;99125.19;4864968;29;20018;-90
2023/12/04 04:47:02;;;;;;;;;;;;;;;1.02;100.00;99123.53;4831394;29;19982;-90
2023/12/04 04:49:33;;;;;;;;;;;;;;;0.99;100.00;99127.19;4831459;29;19923;-89
2023/12/04 04:52:15;;;;;;;;;;;;;;;1.03;100.00;99111.34;4843106;29;19915;-91
2023/12/04 04:54:53;;;;;;;;;;;;;;;0.99;100.00;99124.59;4864788;29;19916;-90
2023/12/04 04:57:26;;;;;;;;;;;;;;;1.00;100.00;99128.03;4829610;29;20094;-90
2023/12/04 05:00:06;;;;;;;;;;;;;;;1.03;100.00;99133.00;4843683;29;19923;-90
2023/12/04 05:02:54;;;;;;;;;;;;;;;1.08;100.00;99124.84;4857463;29;19919;-90
2023/12/04 05:05:28;;;;;;;;;;;;;;;1.05;100.00;99145.91;4846215;29;20006;-90
2023/12/04 05:08:02;;;;;;;;;;;;;;;1.02;100.00;99143.53;4855616;29;19955;-90
2023/12/04 05:10:37;;;;;;;;;;;;;;;1.01;100.00;99145.28;4847580;29;19919;-92
2023/12/04 05:13:09;;;;;;;;;;;;;;;0.98;100.00;99124.72;4835528;29;20026;-92
2023/12/04 05:15:35;;;;;;;;;;;;;;;0.97;100.00;99149.09;4837546;29;19916;-90
2023/12/04 05:18:01;;;;;;;;;;;;;;;0.97;100.00;99151.69;4833259;29;19963;-90
2023/12/04 05:20:35;;;;;;;;;;;;;;;0.92;100.00;99170.25;4847052;29;19916;-91
2023/12/04 05:23:10;;;;;;;;;;;;;;;0.90;100.00;99158.25;4843935;29;19928;-91
2023/12/04 05:25:39;;;;;;;;;;;;;;;0.86;100.00;99166.31;4833638;29;20010;-92
2023/12/04 05:28:07;;;;;;;;;;;;;;;0.83;100.00;99153.53;4835637;29;19924;-92
2023/12/04 05:30:33;;;;;;;;;;;;;;;0.81;100.00;99160.59;4836757;29;19983;-89
2023/12/04 05:33:03;;;;;;;;;;;;;;;0.85;100.00;99169.84;4866297;29;19931;-89
2023/12/04 05:35:45;;;;;;;;;;;;;;;0.91;100.00;99171.16;4859453;29;19919;-92
2023/12/04 05:38:22;;;;;;;;;;;;;;;0.98;100.00;99174.16;4882814;29;20282;-93
2023/12/04 05:40:52;;;;;;;;;;;;;;;0.99;100.00;99165.38;4851636;29;19921;-92
2023/12/04 05:43:18;;;;;;;;;;;;;;;1.03;100.00;99179.00;4851855;29;19919;-92
2023/12/04 05:45:44;;;;;;;;;;;;;;;1.03;100.00;99169.44;4880263;29;19944;-91
2023/12/04 05:48:10;;;;;;;;;;;;;;;1.06;100.00;99171.81;4840856;29;19915;-91
2023/12/04 05:50:41;;;;;;;;;;;;;;;1.10;100.00;99191.44;4852870;29;19915;-90
2023/12/04 05:53:10;;;;;;;;;;;;;;;1.11;100.00;99169.66;4843769;29;20006;-90
2023/12/04 05:55:39;;;;;;;;;;;;;;;1.17;100.00;99181.41;4871946;29;19919;-89
2023/12/04 05:58:05;;;;;;;;;;;;;;;1.17;100.00;99193.59;4864820;29;20423;-90
2023/12/04 06:00:34;;;;;;;;;;;;;;;1.17;100.00;99194.44;4874708;29;20389;-92
2023/12/04 06:03:00;;;;;;;;;;;;;;;1.23;100.00;99195.72;4845964;29;19919;-92
2023/12/04 06:05:27;;;;;;;;;;;;;;;1.27;100.00;99205.00;4879410;29;19922;-91
2023/12/04 06:07:57;;;;;;;;;;;;;;;1.28;100.00;99206.63;4838132;29;19922;-91
2023/12/04 06:10:26;;;;;;;;;;;;;;;1.27;100.00;99204.16;4860608;29;19938;-90
2023/12/04 06:12:55;;;;;;;;;;;;;;;1.30;100.00;99214.31;4848451;29;19915;-90
2023/12/04 06:15:24;;;;;;;;;;;;;;;1.31;100.00;99209.00;4878954;29;20318;-89
2023/12/04 06:17:50;;;;;;;;;;;;;;;1.33;100.00;99209.72;4854757;29;20019;-89
2023/12/04 06:20:19;;;;;;;;;;;;;;;1.35;100.00;99212.22;4880604;29;20417;-90
2023/12/04 06:22:46;;;;;;;;;;;;;;;1.39;100.00;99207.59;4874777;29;20010;-89
2023/12/04 06:25:18;;;;;;;;;;;;;;;1.37;100.00;99215.50;4851770;29;19954;-91
2023/12/04 06:27:44;;;;;;;;;;;;;;;1.34;100.00;99203.56;4878129;29;19915;-91
2023/12/04 06:30:10;;;;;;;;;;;;;;;1.28;100.00;99211.84;4840483;29;19916;-91
2023/12/04 06:32:38;;;;;;;;;;;;;;;1.26;100.00;99210.31;4850180;29;20050;-91
2023/12/04 06:35:04;;;;;;;;;;;;;;;1.17;100.00;99224.81;4858198;29;19930;-90
2023/12/04 06:37:31;;;;;;;;;;;;;;;1.06;100.00;99217.81;4862302;29;20006;-90
2023/12/04 06:40:02;;;;;;;;;;;;;;;1.01;100.00;99222.50;4862700;29;19916;-91
2023/12/04 06:42:31;;;;;;;;;;;;;;;0.96;100.00;99218.50;4863940;29;19924;-92
2023/12/04 06:44:57;;;;;;;;;;;;;;;0.91;100.00;99227.59;4874989;29;20282;-91
2023/12/04 06:47:23;;;;;;;;;;;;;;;0.89;100.00;99227.69;4863498;29;19923;-91
2023/12/04 06:49:52;;;;;;;;;;;;;;;0.89;100.00;99229.47;4862897;29;20030;-92
2023/12/04 06:52:21;;;;;;;;;;;;;;;0.90;100.00;99226.75;4863976;29;20375;-91
2023/12/04 06:54:48;;;;;;;;;;;;;;;0.86;100.00;99240.94;4846868;29;19915;-92
2023/12/04 06:57:14;;;;;;;;;;;;;;;0.82;100.00;99235.13;4863421;29;19998;-91
2023/12/04 06:59:43;;;;;;;;;;;;;;;0.73;100.00;99241.78;4862887;29;19916;-90
2023/12/04 07:02:09;;;;;;;;;;;;;;;0.77;100.00;99242.41;4864603;29;19920;-90
2023/12/04 07:04:36;;;;;;;;;;;;;;;0.79;100.00;99247.50;4881089;29;19923;-89
2023/12/04 07:07:14;;;;;;;;;;;;;;;0.80;100.00;99243.94;4849963;29;20284;-90
2023/12/04 07:09:39;;;;;;;;;;;;;;;0.81;100.00;99246.44;4873793;29;19924;-92
2023/12/04 07:12:06;;;;;;;;;;;;;;;0.81;100.00;99250.84;4861584;29;19942;-92
2023/12/04 07:14:32;;;;;;;;;;;;;;;0.82;100.00;99242.91;4873401;29;19998;-92
2023/12/04 07:17:01;;;;;;;;;;;;;;;0.82;100.00;99242.91;4866416;29;20438;-89
2023/12/04 07:19:26;;;;;;;;;;;;;;;0.80;100.00;99252.59;4861895;29;20006;-92
2023/12/04 07:21:56;;;;;;;;;;;;;;;0.82;100.00;99250.72;4862542;29;19923;-91
2023/12/04 07:24:26;;;;;;;;;;;;;;;0.83;100.00;99247.16;4876977;29;20021;-90
2023/12/04 07:26:55;;;;;;;;;;;;;;;0.81;100.00;99245.63;4861925;29;19922;-91
2023/12/04 07:29:25;;;;;;;;;;;;;;;0.83;100.00;99251.53;4849121;29;20347;-90
2023/12/04 07:31:51;;;;;;;;;;;;;;;0.79;100.00;99250.09;4849324;29;20470;-91
2023/12/04 07:34:20;;;;;;;;;;;;;;;0.83;100.00;99254.13;4851763;29;19920;-92
2023/12/04 07:36:56;;;;;;;;;;;;;;;0.79;100.00;99265.72;4845675;29;20282;-91
2023/12/04 07:39:30;;;;;;;;;;;;;;;0.75;100.00;99259.91;4846145;29;19923;-91
2023/12/04 07:42:04;;;;;;;;;;;;;;;0.79;100.00;99255.31;4858003;29;19916;-91
2023/12/04 07:44:32;;;;;;;;;;;;;;;0.81;100.00;99262.06;4875392;29;19926;-90
2023/12/04 07:46:59;;;;;;;;;;;;;;;0.84;100.00;99264.47;4879197;29;19999;-89
2023/12/04 07:49:28;;;;;;;;;;;;;;;0.88;100.00;99266.84;4841316;29;19916;-89
2023/12/04 07:51:54;;;;;;;;;;;;;;;0.90;100.00;99257.97;4841675;29;19919;-91
2023/12/04 07:54:25;;;;;;;;;;;;;;;0.91;100.00;99266.63;4860880;29;19988;-91
2023/12/04 07:56:53;;;;;;;;;;;;;;;0.91;100.00;99270.03;4861004;29;19915;-90
2023/12/04 07:59:18;;;;;;;;;;;;;;;0.94;100.00;99277.59;4860699;29;20390;-91
2023/12/04 08:01:50;;;;;;;;;;;;;;;0.89;100.00;99284.09;4848828;29;20287;-96
2023/12/04 08:04:26;;;;;;;;;;;;;;;0.90;100.00;99278.78;4852880;29;19920;-96
2023/12/04 08:07:19;;;;;;;;;;;;;;;0.88;100.00;99282.44;4890234;29;19915;-96
2023/12/04 08:12:46;;;;;;;;;;;;;;;0.91;100.00;99284.81;4932517;29;19922;-96
2023/12/04 08:15:12;;;;;;;;;;;;;;;0.90;100.00;99277.94;4886749;29;19923;-95
2023/12/04 08:17:37;;;;;;;;;;;;;;;0.92;100.00;99296.88;4911898;29;20018;-95
2023/12/04 08:20:04;;;;;;;;;;;;;;;0.93;100.00;99293.34;4886513;29;19922;-96
2023/12/04 08:22:29;;;;;;;;;;;;;;;0.97;100.00;99295.59;4885846;24;19928;-94
2023/12/04 08:24:55;;;;;;;;;;;;;;;0.96;100.00;99298.31;4861546;29;19930;-96
2023/12/04 08:27:20;;;;;;;;;;;;;;;0.94;100.00;99295.81;4865178;29;19922;-94
2023/12/04 08:29:46;;;;;;;;;;;;;;;0.91;100.00;99297.84;4862549;29;19960;-95
2023/12/04 08:32:12;;;;;;;;;;;;;;;0.92;100.00;99297.72;4862809;29;19926;-95
2023/12/04 08:34:37;;;;;;;;;;;;;;;0.93;100.00;99306.34;4861931;29;19919;-96
2023/12/04 08:37:03;;;;;;;;;;;;;;;0.92;100.00;99295.13;4862914;29;20367;-94
2023/12/04 08:39:28;;;;;;;;;;;;;;;0.93;100.00;99303.75;4862154;29;19927;-95
2023/12/04 08:41:54;;;;;;;;;;;;;;;0.93;100.00;99294.16;4879510;29;19923;-95
2023/12/04 08:44:19;;;;;;;;;;;;;;;0.94;100.00;99305.41;4847279;29;20003;-95
2023/12/04 08:46:45;;;;;;;;;;;;;;;0.95;100.00;99323.53;4880654;29;19962;-92
2023/12/04 08:49:10;;;;;;;;;;;;;;;0.97;100.00;99318.22;4864723;29;19919;-95
2023/12/04 08:51:36;;;;;;;;;;;;;;;0.94;100.00;99314.03;4850173;29;20018;-95
2023/12/04 08:54:02;;;;;;;;;;;;;;;0.98;100.00;99320.69;4861933;29;19915;-95
2023/12/04 08:56:29;;;;;;;;;;;;;;;0.93;100.00;99312.38;4855925;29;20055;-96
2023/12/04 08:58:55;;;;;;;;;;;;;;;0.95;100.00;99315.72;4897244;29;20018;-95
2023/12/04 09:01:20;;;;;;;;;;;;;;;1.01;100.00;99311.84;4879649;29;20365;-96
2023/12/04 09:03:46;;;;;;;;;;;;;;;1.03;100.00;99312.56;4864248;29;19974;-92
2023/12/04 09:06:11;;;;;;;;;;;;;;;0.96;100.00;99325.19;4877564;29;19915;-93
2023/12/04 09:08:37;;;;;;;;;;;;;;;1.02;100.00;99328.28;4862249;29;19931;-94
2023/12/04 09:11:05;;;;;;;;;;;;;;;1.04;100.00;99335.03;4875802;29;20014;-94
2023/12/04 09:13:32;;;;;;;;;;;;;;;1.05;100.00;99339.28;4844178;29;19966;-94
2023/12/04 09:15:58;;;;;;;;;;;;;;;1.10;100.00;99341.56;4862263;29;19983;-94
2023/12/04 09:18:23;;;;;;;;;;;;;;;1.13;100.00;99340.53;4877850;29;20002;-94
2023/12/04 09:20:49;;;;;;;;;;;;;;;1.20;100.00;99339.97;4859554;29;19955;-95
2023/12/04 09:23:15;;;;;;;;;;;;;;;1.25;100.00;99347.44;4877601;29;19931;-94
2023/12/04 09:25:40;;;;;;;;;;;;;;;1.27;100.00;99350.78;4872646;29;19944;-96
2023/12/04 09:28:06;;;;;;;;;;;;;;;1.34;100.00;99348.53;4877588;29;20359;-96
2023/12/04 09:30:33;;;;;;;;;;;;;;;1.40;100.00;99347.28;4857981;29;20442;-96
2023/12/04 09:32:59;;;;;;;;;;;;;;;1.47;100.00;99340.66;4860461;29;19919;-95
2023/12/04 09:35:25;;;;;;;;;;;;;;;1.49;100.00;99351.81;4861718;29;19922;-96
2023/12/04 09:37:50;;;;;;;;;;;;;;;1.55;100.00;99355.72;4862405;29;19926;-95
2023/12/04 09:40:16;;;;;;;;;;;;;;;1.57;100.00;99346.03;4877619;29;19915;-95
2023/12/04 09:42:42;;;;;;;;;;;;;;;1.59;100.00;99342.34;4839088;29;19930;-94
2023/12/04 09:45:08;;;;;;;;;;;;;;;1.61;100.00;99342.22;4862726;29;20018;-95
2023/12/04 09:47:34;;;;;;;;;;;;;;;1.66;100.00;99349.72;4861368;29;20462;-96
2023/12/04 09:50:00;;;;;;;;;;;;;;;1.72;100.00;99349.28;4860002;29;20327;-95
2023/12/04 09:52:27;;;;;;;;;;;;;;;1.77;100.00;99356.75;4874537;29;19968;-93
2023/12/04 09:54:53;;;;;;;;;;;;;;;1.79;100.00;99360.06;4867605;29;19916;-96
2023/12/04 09:57:18;;;;;;;;;;;;;;;1.84;100.00;99357.94;4861341;29;20725;-95
2023/12/04 09:59:44;;;;;;;;;;;;;;;1.85;100.00;99370.84;4859831;29;20022;-96
2023/12/04 10:02:11;;;;;;;;;;;;;;;1.89;100.00;99375.84;4877028;29;19991;-95
2023/12/04 10:04:36;;;;;;;;;;;;;;;1.92;100.00;99383.44;4864524;29;19916;-96
2023/12/04 10:07:03;;;;;;;;;;;;;;;1.94;100.00;99374.53;4861192;29;20352;-95
2023/12/04 10:09:28;;;;;;;;;;;;;;;1.96;100.00;99377.03;4879204;29;19920;-95
2023/12/04 10:11:56;;;;;;;;;;;;;;;1.97;100.00;99371.72;4853244;29;19916;-95
2023/12/04 10:14:22;;;;;;;;;;;;;;;2.02;100.00;99376.59;4880695;29;19954;-96
2023/12/04 10:16:49;;;;;;;;;;;;;;;1.98;100.00;99373.38;4878123;29;19951;-96
2023/12/04 10:19:28;;;;;;;;;;;;;;;2.00;100.00;99380.25;4879756;29;19944;-95
2023/12/04 10:21:55;;;;;;;;;;;;;;;2.02;100.00;99383.56;4880207;29;19924;-96
2023/12/04 10:24:31;;;;;;;;;;;;;;;2.02;100.00;99376.59;4867790;29;19974;-94
2023/12/04 10:26:57;;;;;;;;;;;;;;;2.05;100.00;99389.38;4852302;29;19940;-95
2023/12/04 10:29:24;;;;;;;;;;;;;;;2.08;100.00;99386.56;4867190;29;19924;-95
2023/12/04 10:31:50;;;;;;;;;;;;;;;2.14;100.00;99397.44;4867403;29;19959;-94
2023/12/04 10:34:16;;;;;;;;;;;;;;;2.13;100.00;99393.19;4848346;29;20308;-96
2023/12/04 10:36:41;;;;;;;;;;;;;;;2.14;100.00;99387.84;4862323;29;19924;-96
2023/12/04 10:39:07;;;;;;;;;;;;;;;2.20;100.00;99402.19;4865509;29;19919;-94
2023/12/04 10:41:33;;;;;;;;;;;;;;;2.27;100.00;99395.59;4881179;29;20006;-95
2023/12/04 10:44:00;;;;;;;;;;;;;;;2.37;100.00;99400.94;4859215;29;19920;-94
2023/12/04 10:46:26;;;;;;;;;;;;;;;2.40;100.00;99394.66;4865308;29;20378;-94
2023/12/04 10:48:52;;;;;;;;;;;;;;;2.43;100.00;99405.69;4864102;29;20418;-95
2023/12/04 10:51:19;;;;;;;;;;;;;;;2.45;100.00;99393.31;4879497;29;19920;-94
2023/12/04 10:53:44;;;;;;;;;;;;;;;2.45;100.00;99398.53;4865969;29;19924;-96
2023/12/04 10:56:12;;;;;;;;;;;;;;;2.54;100.00;99404.00;4876877;29;20354;-96
2023/12/04 10:58:39;;;;;;;;;;;;;;;2.59;100.00;99414.94;4884793;29;19926;-96
2023/12/04 11:01:08;;;;;;;;;;;;;;;2.63;100.00;99402.50;4862623;29;19927;-96
2023/12/04 11:03:40;;;;;;;;;;;;;;;2.69;100.00;99412.44;4881863;29;19927;-96
2023/12/04 11:06:09;;;;;;;;;;;;;;;2.72;100.00;99407.00;4864983;29;19916;-96
2023/12/04 11:08:36;;;;;;;;;;;;;;;2.76;100.00;99413.63;4879696;29;19919;-96
2023/12/04 11:11:07;;;;;;;;;;;;;;;2.76;100.00;99421.44;4884253;29;19916;-96
2023/12/04 11:13:35;;;;;;;;;;;;;;;2.76;100.00;99421.44;4869737;29;19927;-96
2023/12/04 11:16:21;;;;;;;;;;;;;;;2.77;100.00;99409.25;4873292;29;20010;-96
2023/12/04 11:18:50;;;;;;;;;;;;;;;2.77;100.00;99412.66;4871896;29;19923;-96
2023/12/04 11:21:19;;;;;;;;;;;;;;;2.80;100.00;99416.81;4882167;29;19920;-96
2023/12/04 11:23:45;;;;;;;;;;;;;;;2.82;100.00;99404.50;4898864;29;19970;-96
2023/12/04 11:26:11;;;;;;;;;;;;;;;2.90;100.00;99403.91;4881437;29;19959;-96
2023/12/04 11:28:40;;;;;;;;;;;;;;;2.92;100.00;99404.59;4852264;29;19922;-96
2023/12/04 11:31:06;;;;;;;;;;;;;;;2.93;100.00;99416.72;4854532;29;19922;-96
2023/12/04 11:33:36;;;;;;;;;;;;;;;2.97;100.00;99407.69;4863959;29;19916;-96
2023/12/04 11:36:08;;;;;;;;;;;;;;;3.00;100.00;99411.81;4883087;29;19919;-96
2023/12/04 11:38:36;;;;;;;;;;;;;;;3.01;100.00;99419.53;4897269;29;19919;-96
2023/12/04 11:41:14;;;;;;;;;;;;;;;3.04;100.00;99411.44;4865547;29;19931;-96
2023/12/04 11:43:42;;;;;;;;;;;;;;;3.05;100.00;99414.91;4854105;29;19924;-96
2023/12/04 11:46:11;;;;;;;;;;;;;;;3.13;100.00;99407.28;4874166;29;19919;-96
2023/12/04 11:48:38;;;;;;;;;;;;;;;3.19;100.00;99414.63;4900450;29;19959;-96
2023/12/04 11:51:06;;;;;;;;;;;;;;;3.26;100.00;99416.75;4870666;29;20014;-96
2023/12/04 11:53:32;;;;;;;;;;;;;;;3.25;100.00;99426.38;4870822;29;19922;-96
2023/12/04 11:55:58;;;;;;;;;;;;;;;3.27;100.00;99421.88;4895280;29;19920;-96
2023/12/04 11:58:29;;;;;;;;;;;;;;;3.30;100.00;99421.63;4888845;29;19991;-96
2023/12/04 12:00:55;;;;;;;;;;;;;;;3.31;100.00;99423.25;4890257;29;19947;-96
2023/12/04 12:03:21;;;;;;;;;;;;;;;3.29;100.00;99419.97;4871126;29;19903;-96
2023/12/04 12:05:48;;;;;;;;;;;;;;;3.32;100.00;99422.34;4902460;29;19920;-96
2023/12/04 12:08:14;;;;;;;;;;;;;;;3.34;100.00;99417.78;4885983;29;19920;-96
2023/12/04 12:10:40;;;;;;;;;;;;;;;3.34;100.00;99419.59;4860522;29;19979;-96
2023/12/04 12:13:06;;;;;;;;;;;;;;;3.41;100.00;99425.97;4859434;29;19915;-96
2023/12/04 12:15:35;;;;;;;;;;;;;;;3.43;100.00;99423.25;4864766;29;19922;-96
2023/12/04 12:18:04;;;;;;;;;;;;;;;3.44;100.00;99425.72;4868940;29;19921;-97
2023/12/04 12:20:30;;;;;;;;;;;;;;;3.54;100.00;99417.97;4868003;29;19919;-96
2023/12/04 12:22:56;;;;;;;;;;;;;;;3.56;100.00;99421.31;4850603;29;19927;-96
2023/12/04 12:25:26;;;;;;;;;;;;;;;3.56;100.00;99417.84;4859713;29;19916;-96
2023/12/04 12:27:52;;;;;;;;;;;;;;;3.58;100.00;99426.41;4818575;29;19920;-96
2023/12/04 12:30:19;;;;;;;;;;;;;;;3.57;100.00;99424.72;4836904;29;20471;-96
2023/12/04 12:32:45;;;;;;;;;;;;;;;3.59;100.00;99418.44;4820827;29;19926;-96
2023/12/04 12:35:11;;;;;;;;;;;;;;;3.64;100.00;99417.22;4853239;29;20022;-96
2023/12/04 12:37:39;;;;;;;;;;;;;;;3.67;100.00;99409.97;4842486;29;19917;-96
2023/12/04 12:40:09;;;;;;;;;;;;;;;3.71;100.00;99411.38;4857097;29;19924;-96
2023/12/04 12:42:35;;;;;;;;;;;;;;;3.74;100.00;99417.31;4842833;29;19947;-96
2023/12/04 12:45:02;;;;;;;;;;;;;;;3.71;100.00;99407.97;4827693;29;19930;-96
2023/12/04 12:47:29;;;;;;;;;;;;;;;3.81;100.00;99411.47;4834126;29;19920;-96
2023/12/04 12:49:56;;;;;;;;;;;;;;;3.85;100.00;99405.00;4854433;29;19916;-96
2023/12/04 12:52:22;;;;;;;;;;;;;;;3.90;100.00;99415.09;4871053;29;19972;-96
2023/12/04 12:54:48;;;;;;;;;;;;;;;3.97;100.00;99416.25;4861231;29;19919;-96
2023/12/04 12:57:15;;;;;;;;;;;;;;;3.92;100.00;99409.72;4838462;29;19923;-96
2023/12/04 12:59:44;;;;;;;;;;;;;;;3.96;100.00;99416.38;4840899;29;19925;-96
2023/12/04 13:02:10;;;;;;;;;;;;;;;3.96;100.00;99416.38;4862230;29;19927;-96
2023/12/04 13:04:45;;;;;;;;;;;;;;;3.87;100.00;99422.38;4841808;29;20355;-96
2023/12/04 13:07:12;;;;;;;;;;;;;;;3.85;100.00;99433.75;4847481;29;19916;-96
2023/12/04 13:09:40;;;;;;;;;;;;;;;3.76;100.00;99428.50;4843912;29;19970;-96
2023/12/04 13:12:08;;;;;;;;;;;;;;;3.69;100.00;99434.22;4843135;29;19916;-96
2023/12/04 13:14:35;;;;;;;;;;;;;;;3.63;100.00;99423.44;4845145;29;19967;-96
2023/12/04 13:17:01;;;;;;;;;;;;;;;3.64;100.00;99432.91;4838735;29;19963;-96
2023/12/04 13:19:27;;;;;;;;;;;;;;;3.65;100.00;99435.41;4849855;29;19923;-96
2023/12/04 13:21:56;;;;;;;;;;;;;;;3.68;100.00;99431.72;4849667;29;20008;-96
2023/12/04 13:24:27;;;;;;;;;;;;;;;3.67;100.00;99435.28;4906388;29;19923;-96
2023/12/04 13:26:55;;;;;;;;;;;;;;;3.63;100.00;99432.06;4915151;29;19915;-96
2023/12/04 13:29:28;;;;;;;;;;;;;;;3.64;100.00;99428.53;4909824;29;19938;-96
2023/12/04 13:31:56;;;;;;;;;;;;;;;3.63;100.00;99429.47;4891591;29;19926;-96
2023/12/04 13:34:22;;;;;;;;;;;;;;;3.69;100.00;99425.53;4895327;29;19966;-96
2023/12/04 13:36:48;;;;;;;;;;;;;;;3.64;100.00;99430.31;4876831;29;19979;-96
2023/12/04 13:39:19;;;;;;;;;;;;;;;3.62;100.00;99425.19;4852264;29;19922;-96
2023/12/04 13:44:33;;;;;;;;;;;;;;;3.69;100.00;99428.16;4904672;29;19971;-96
2023/12/04 13:47:00;;;;;;;;;;;;;;;3.68;100.00;99429.94;4858851;29;19990;-96
2023/12/04 13:49:26;;;;;;;;;;;;;;;3.75;100.00;99437.25;4866783;29;19955;-96
2023/12/04 13:51:53;;;;;;;;;;;;;;;3.82;100.00;99427.97;4901713;29;19916;-96
2023/12/04 13:54:21;;;;;;;;;;;;;;;3.84;100.00;99434.72;4880248;29;19916;-96
2023/12/04 13:56:53;;;;;;;;;;;;;;;3.89;100.00;99425.66;4890607;29;19940;-96
2023/12/04 13:59:23;;;;;;;;;;;;;;;3.97;100.00;99425.88;4873925;29;19995;-96
2023/12/04 14:01:50;;;;;;;;;;;;;;;4.04;100.00;99437.50;4873189;29;19923;-96
2023/12/04 14:04:17;;;;;;;;;;;;;;;4.15;100.00;99441.84;4872908;29;19916;-96
2023/12/04 14:06:46;;;;;;;;;;;;;;;4.25;100.00;99436.69;4879614;29;19953;-96
2023/12/04 14:09:19;;;;;;;;;;;;;;;4.28;100.00;99443.44;4880004;29;19915;-96
2023/12/04 14:11:47;;;;;;;;;;;;;;;4.29;100.00;99445.91;4878993;29;19929;-96
2023/12/04 14:14:14;;;;;;;;;;;;;;;4.27;100.00;99442.59;4879353;29;19923;-96
2023/12/04 14:16:46;;;;;;;;;;;;;;;4.24;100.00;99445.47;4881603;29;19923;-96
2023/12/04 14:19:16;;;;;;;;;;;;;;;4.27;100.00;99442.59;4879339;29;19930;-96
2023/12/04 14:21:42;;;;;;;;;;;;;;;4.12;100.00;99447.31;4861777;29;19987;-96